createdAt,value
2019-03-27T00:02:15.069Z,3.60
2019-03-27T00:04:57.399Z,3.50
2019-03-27T00:07:38.476Z,3.50
2019-03-27T00:10:20.331Z,3.50
2019-03-27T00:13:02.324Z,3.50
2019-03-27T00:15:44.319Z,3.60
2019-03-27T00:18:26.191Z,3.70
2019-03-27T00:21:08.122Z,3.70
2019-03-27T00:23:50.148Z,3.70
2019-03-27T00:26:32.032Z,3.60
2019-03-27T00:29:14.024Z,3.70
2019-03-27T00:31:55.844Z,3.70
2019-03-27T00:34:37.811Z,3.60
2019-03-27T00:37:19.657Z,3.70
2019-03-27T00:40:01.585Z,3.60
2019-03-27T00:42:43.580Z,3.70
2019-03-27T00:45:27.092Z,3.70
2019-03-27T00:48:09.438Z,3.60
2019-03-27T00:50:51.312Z,3.60
2019-03-27T00:59:19.328Z,3.90
2019-03-27T01:02:01.312Z,3.70
2019-03-27T01:04:43.242Z,3.70
2019-03-27T01:07:25.156Z,3.70
2019-03-27T01:10:06.888Z,3.70
2019-03-27T01:12:48.900Z,3.60
2019-03-27T01:15:39.712Z,3.40
2019-03-27T01:18:15.568Z,3.60
2019-03-27T01:20:57.380Z,3.50
2019-03-27T01:23:39.249Z,3.30
2019-03-27T01:26:21.229Z,3.20
2019-03-27T01:29:03.084Z,3.20
2019-03-27T01:31:45.831Z,3.20
2019-03-27T01:34:27.849Z,3.20
2019-03-27T01:37:09.791Z,3.30
2019-03-27T01:39:51.713Z,3.20
2019-03-27T01:42:32.808Z,3.10
2019-03-27T01:45:14.779Z,3.20
2019-03-27T01:47:56.631Z,3.20
2019-03-27T01:50:37.640Z,3.40
2019-03-27T01:53:19.500Z,3.30
2019-03-27T01:56:01.316Z,3.40
2019-03-27T01:58:43.094Z,3.50
2019-03-27T02:01:24.903Z,3.40
2019-03-27T02:04:06.065Z,3.30
2019-03-27T02:06:47.000Z,3.40
2019-03-27T02:09:29.097Z,3.50
2019-03-27T02:12:10.927Z,3.30
2019-03-27T02:14:52.877Z,3.20
2019-03-27T02:17:33.987Z,3.20
2019-03-27T02:20:16.119Z,3.10
2019-03-27T02:22:58.049Z,3.20
2019-03-27T02:25:39.895Z,3.10
2019-03-27T02:28:21.864Z,3.10
2019-03-27T02:31:03.889Z,3.20
2019-03-27T02:33:31.994Z,3.30
2019-03-27T02:36:13.927Z,3.40
2019-03-27T02:38:55.708Z,3.40
2019-03-27T02:41:37.577Z,3.40
2019-03-27T02:44:19.469Z,3.30
2019-03-27T02:47:02.297Z,3.40
2019-03-27T02:49:44.181Z,3.40
2019-03-27T02:52:27.197Z,3.50
2019-03-27T02:55:09.100Z,3.40
2019-03-27T02:57:51.032Z,3.40
2019-03-27T03:00:32.796Z,3.30
2019-03-27T03:03:14.736Z,3.10
2019-03-27T03:05:56.578Z,2.90
2019-03-27T03:08:38.594Z,2.90
2019-03-27T03:11:20.525Z,2.90
2019-03-27T03:14:02.573Z,3.00
2019-03-27T03:16:44.279Z,2.90
2019-03-27T03:19:26.410Z,3.00
2019-03-27T03:22:08.282Z,3.10
2019-03-27T03:24:50.243Z,3.00
2019-03-27T03:27:32.145Z,3.00
2019-03-27T03:30:14.012Z,2.80
2019-03-27T03:32:55.880Z,3.00
2019-03-27T03:35:24.045Z,3.00
2019-03-27T03:38:05.939Z,3.00
2019-03-27T03:40:47.782Z,3.00
2019-03-27T03:43:29.737Z,3.00
2019-03-27T03:46:10.737Z,3.10
2019-03-27T03:48:52.601Z,3.00
2019-03-27T03:51:33.569Z,3.10
2019-03-27T03:54:15.488Z,3.20
2019-03-27T03:56:57.558Z,3.10
2019-03-27T03:59:39.552Z,3.20
2019-03-27T04:02:21.357Z,3.20
2019-03-27T04:05:03.088Z,3.20
2019-03-27T04:07:45.051Z,3.20
2019-03-27T04:10:27.056Z,3.20
2019-03-27T04:13:08.954Z,3.40
2019-03-27T04:15:50.976Z,3.30
2019-03-27T04:18:19.152Z,3.30
2019-03-27T04:21:01.619Z,3.30
2019-03-27T04:23:43.658Z,3.20
2019-03-27T04:26:25.410Z,3.40
2019-03-27T04:29:07.338Z,3.50
2019-03-27T04:31:49.212Z,3.30
2019-03-27T04:34:31.389Z,3.40
2019-03-27T04:37:13.200Z,3.40
2019-03-27T04:39:54.319Z,3.30
2019-03-27T04:42:35.468Z,3.30
2019-03-27T04:45:16.582Z,3.40
2019-03-27T04:47:58.509Z,3.40
2019-03-27T04:50:40.510Z,3.50
2019-03-27T04:53:21.536Z,3.50
2019-03-27T04:56:03.515Z,3.40
2019-03-27T04:58:45.404Z,3.40
2019-03-27T05:01:27.271Z,3.40
2019-03-27T05:04:11.183Z,3.40
2019-03-27T05:06:52.931Z,3.40
2019-03-27T05:09:34.715Z,3.40
2019-03-27T05:12:16.763Z,3.50
2019-03-27T05:14:58.675Z,3.50
2019-03-27T05:17:46.199Z,3.50
2019-03-27T05:20:24.256Z,3.50
2019-03-27T05:23:06.132Z,3.50
2019-03-27T05:25:47.899Z,3.60
2019-03-27T05:28:29.896Z,3.50
2019-03-27T05:31:11.701Z,3.50
2019-03-27T05:33:53.906Z,3.60
2019-03-27T05:36:35.772Z,3.50
2019-03-27T05:39:17.583Z,3.60
2019-03-27T05:41:59.699Z,3.50
2019-03-27T05:44:41.732Z,3.50
2019-03-27T05:47:22.740Z,3.50
2019-03-27T05:50:04.816Z,3.60
2019-03-27T05:52:46.496Z,3.40
2019-03-27T05:55:47.656Z,3.50
2019-03-27T05:58:29.549Z,3.50
2019-03-27T06:01:12.456Z,3.50
2019-03-27T06:03:54.263Z,3.60
2019-03-27T06:06:40.860Z,3.60
2019-03-27T06:09:22.179Z,3.60
2019-03-27T06:12:04.042Z,3.60
2019-03-27T06:14:46.025Z,3.60
2019-03-27T06:17:47.459Z,3.60
2019-03-27T06:20:29.475Z,3.60
2019-03-27T06:23:11.536Z,3.60
2019-03-27T06:25:53.464Z,3.60
2019-03-27T06:28:35.505Z,3.70
2019-03-27T06:31:17.597Z,3.80
2019-03-27T06:33:59.786Z,3.70
2019-03-27T06:36:40.847Z,3.70
2019-03-27T06:39:22.544Z,3.70
2019-03-27T06:42:04.344Z,3.80
2019-03-27T06:44:46.388Z,3.70
2019-03-27T06:47:27.475Z,3.70
2019-03-27T06:50:09.523Z,3.70
2019-03-27T06:52:51.404Z,3.70
2019-03-27T06:55:33.252Z,3.70
2019-03-27T06:58:14.415Z,3.70
2019-03-27T07:00:56.365Z,3.80
2019-03-27T07:03:38.359Z,3.60
2019-03-27T07:06:20.311Z,3.70
2019-03-27T07:09:01.332Z,3.60
2019-03-27T07:11:43.236Z,3.80
2019-03-27T07:14:25.111Z,3.70
2019-03-27T07:17:06.950Z,3.80
2019-03-27T07:19:48.983Z,3.80
2019-03-27T07:22:30.943Z,3.70
2019-03-27T07:25:12.868Z,3.80
2019-03-27T07:27:54.855Z,3.90
2019-03-27T07:30:36.736Z,3.80
2019-03-27T07:33:18.704Z,3.70
2019-03-27T07:36:00.628Z,3.80
2019-03-27T07:38:42.828Z,3.80
2019-03-27T07:41:24.772Z,3.80
2019-03-27T07:44:06.973Z,3.90
2019-03-27T07:46:48.089Z,3.90
2019-03-27T07:49:30.016Z,3.70
2019-03-27T07:52:12.070Z,3.90
2019-03-27T07:54:54.204Z,3.80
2019-03-27T07:57:36.215Z,3.90
2019-03-27T08:00:18.138Z,3.80
2019-03-27T08:02:59.253Z,3.90
2019-03-27T08:05:41.199Z,4.00
2019-03-27T08:08:24.156Z,3.90
2019-03-27T08:10:52.352Z,4.10
2019-03-27T08:13:33.848Z,4.00
2019-03-27T08:16:16.680Z,4.00
2019-03-27T08:19:07.429Z,4.00
2019-03-27T08:21:41.480Z,4.00
2019-03-27T08:24:23.228Z,4.00
2019-03-27T08:27:05.387Z,4.10
2019-03-27T08:29:47.289Z,4.20
2019-03-27T08:32:29.303Z,4.10
2019-03-27T08:35:11.203Z,4.10
2019-03-27T08:37:53.280Z,4.10
2019-03-27T08:40:35.800Z,4.10
2019-03-27T08:43:21.461Z,4.10
2019-03-27T08:46:01.184Z,4.10
2019-03-27T08:48:43.345Z,4.10
2019-03-27T08:51:25.088Z,4.00
2019-03-27T08:56:49.031Z,4.00
2019-03-27T08:59:30.915Z,3.90
2019-03-27T09:01:59.012Z,4.00
2019-03-27T09:04:40.580Z,4.00
2019-03-27T09:07:21.639Z,4.00
2019-03-27T09:10:03.455Z,3.90
2019-03-27T09:12:45.520Z,3.80
2019-03-27T09:15:27.414Z,3.90
2019-03-27T09:18:09.404Z,3.90
2019-03-27T09:20:53.177Z,3.90
2019-03-27T09:23:35.140Z,3.90
2019-03-27T09:26:16.997Z,4.00
2019-03-27T09:28:59.057Z,4.00
2019-03-27T09:31:45.228Z,4.10
2019-03-27T09:34:26.927Z,4.00
2019-03-27T09:37:08.993Z,4.10
2019-03-27T09:39:50.789Z,4.30
2019-03-27T09:42:32.564Z,4.40
2019-03-27T09:45:14.448Z,4.50
2019-03-27T09:47:56.372Z,4.60
2019-03-27T09:50:38.336Z,4.80
2019-03-27T09:53:06.467Z,4.80
2019-03-27T09:55:48.360Z,4.90
2019-03-27T09:58:16.522Z,5.00
2019-03-27T10:00:58.070Z,5.00
2019-03-27T10:03:39.988Z,5.10
2019-03-27T10:06:21.908Z,5.10
2019-03-27T10:09:03.789Z,5.20
2019-03-27T10:11:45.780Z,5.30
2019-03-27T10:14:27.679Z,5.30
2019-03-27T10:16:55.744Z,5.40
2019-03-27T10:19:37.792Z,5.50
2019-03-27T10:22:19.743Z,5.50
2019-03-27T10:25:01.900Z,5.60
2019-03-27T10:27:43.858Z,5.80
2019-03-27T10:30:25.691Z,5.80
2019-03-27T10:33:07.717Z,5.70
2019-03-27T10:35:49.786Z,5.80
2019-03-27T10:38:32.613Z,5.80
2019-03-27T10:41:14.678Z,5.90
2019-03-27T10:43:56.648Z,6.20
2019-03-27T10:46:38.668Z,6.40
2019-03-27T10:49:20.614Z,6.30
2019-03-27T10:51:48.787Z,6.40
2019-03-27T10:54:30.383Z,6.40
2019-03-27T10:57:12.225Z,6.40
2019-03-27T10:59:54.128Z,6.40
2019-03-27T11:02:36.176Z,6.60
2019-03-27T11:05:18.112Z,6.50
2019-03-27T11:08:00.078Z,6.40
2019-03-27T11:10:42.031Z,6.30
2019-03-27T11:13:23.793Z,6.20
2019-03-27T11:16:06.710Z,6.30
2019-03-27T11:18:48.527Z,6.30
2019-03-27T11:21:30.508Z,6.30
2019-03-27T11:24:12.545Z,6.40
2019-03-27T11:26:54.476Z,6.40
2019-03-27T11:29:36.247Z,6.40
2019-03-27T11:32:18.384Z,6.30
2019-03-27T11:35:00.348Z,6.40
2019-03-27T11:37:42.028Z,6.50
2019-03-27T11:40:23.973Z,6.50
2019-03-27T11:43:05.851Z,6.50
2019-03-27T11:45:48.939Z,6.40
2019-03-27T11:48:30.804Z,6.40
2019-03-27T11:51:12.819Z,6.30
2019-03-27T11:53:40.915Z,6.20
2019-03-27T11:56:22.888Z,6.30
2019-03-27T11:59:04.836Z,6.30
2019-03-27T12:01:46.816Z,6.40
2019-03-27T12:04:28.653Z,6.40
2019-03-27T12:07:10.770Z,6.50
2019-03-27T12:09:52.579Z,6.40
2019-03-27T12:12:20.787Z,6.50
2019-03-27T12:15:02.365Z,6.50
2019-03-27T12:17:43.497Z,6.60
2019-03-27T12:20:24.604Z,6.40
2019-03-27T12:23:06.651Z,6.30
2019-03-27T12:25:48.452Z,6.20
2019-03-27T12:28:30.326Z,6.20
2019-03-27T12:31:12.189Z,6.20
2019-03-27T12:33:53.270Z,6.20
2019-03-27T12:36:35.265Z,6.10
2019-03-27T12:39:17.298Z,6.20
2019-03-27T12:41:59.337Z,6.30
2019-03-27T12:44:41.585Z,6.40
2019-03-27T12:47:22.533Z,6.40
2019-03-27T12:50:04.376Z,6.50
2019-03-27T12:52:46.505Z,6.60
2019-03-27T12:55:28.355Z,6.80
2019-03-27T12:58:11.833Z,6.90
2019-03-27T13:00:53.372Z,7.00
2019-03-27T13:03:35.471Z,7.10
2019-03-27T13:06:17.343Z,7.10
2019-03-27T13:08:59.204Z,7.30
2019-03-27T13:11:41.464Z,7.30
2019-03-27T13:14:23.217Z,7.20
2019-03-27T13:17:05.180Z,7.30
2019-03-27T13:19:47.124Z,7.20
2019-03-27T13:22:29.032Z,7.20
2019-03-27T13:25:10.943Z,7.20
2019-03-27T13:27:52.860Z,7.20
2019-03-27T13:30:34.883Z,7.10
2019-03-27T13:33:16.752Z,7.10
2019-03-27T13:35:58.543Z,7.00
2019-03-27T13:38:45.081Z,7.00
2019-03-27T13:41:26.424Z,7.00
2019-03-27T13:44:08.307Z,7.10
2019-03-27T13:46:50.555Z,7.10
2019-03-27T13:49:32.529Z,7.10
2019-03-27T13:52:14.397Z,6.90
2019-03-27T13:54:56.380Z,7.10
2019-03-27T13:57:38.126Z,7.10
2019-03-27T14:00:20.071Z,7.30
2019-03-27T14:03:02.031Z,7.20
2019-03-27T14:05:43.928Z,7.20
2019-03-27T14:08:12.147Z,7.10
2019-03-27T14:10:53.571Z,7.20
2019-03-27T14:13:35.632Z,7.20
2019-03-27T14:16:17.490Z,7.20
2019-03-27T14:18:59.439Z,7.30
2019-03-27T14:21:53.500Z,7.40
2019-03-27T14:24:24.635Z,7.40
2019-03-27T14:27:06.548Z,7.30
2019-03-27T14:29:48.367Z,7.40
2019-03-27T14:32:30.316Z,7.40
2019-03-27T14:35:12.361Z,7.40
2019-03-27T14:37:54.228Z,7.30
2019-03-27T14:40:36.180Z,7.20
2019-03-27T14:43:18.199Z,7.30
2019-03-27T14:46:00.300Z,7.30
2019-03-27T14:48:42.348Z,7.40
2019-03-27T14:51:24.099Z,7.40
2019-03-27T14:54:06.008Z,7.40
2019-03-27T14:56:48.869Z,7.30
2019-03-27T14:59:32.643Z,7.40
2019-03-27T15:02:15.261Z,7.50
2019-03-27T15:04:57.136Z,7.50
2019-03-27T15:07:39.839Z,7.60
2019-03-27T15:10:22.903Z,7.70
2019-03-27T15:13:05.703Z,7.70
2019-03-27T15:15:47.716Z,7.60
2019-03-27T15:18:30.550Z,7.60
2019-03-27T15:21:12.391Z,7.60
2019-03-27T15:23:40.495Z,7.50
2019-03-27T15:26:22.254Z,7.50
2019-03-27T15:29:04.224Z,7.50
2019-03-27T15:31:46.042Z,7.50
2019-03-27T15:34:27.875Z,7.50
2019-03-27T15:37:09.931Z,7.40
2019-03-27T15:39:51.923Z,7.60
2019-03-27T15:42:33.912Z,7.50
2019-03-27T15:45:15.830Z,7.40
2019-03-27T15:47:56.848Z,7.30
2019-03-27T15:50:38.696Z,7.50
2019-03-27T15:53:20.592Z,7.50
2019-03-27T15:55:48.708Z,7.40
2019-03-27T15:58:30.391Z,7.30
2019-03-27T16:01:12.463Z,7.30
2019-03-27T16:03:54.395Z,7.30
2019-03-27T16:06:35.420Z,7.20
2019-03-27T16:09:17.682Z,7.20
2019-03-27T16:11:59.172Z,7.20
2019-03-27T16:14:41.134Z,7.10
2019-03-27T16:17:13.663Z,7.00
2019-03-27T16:22:52.967Z,6.90
2019-03-27T16:25:34.967Z,7.00
2019-03-27T16:28:16.744Z,6.80
2019-03-27T16:30:58.537Z,7.00
2019-03-27T16:33:40.556Z,7.00
2019-03-27T16:36:22.612Z,7.00
2019-03-27T16:39:03.784Z,7.00
2019-03-27T16:41:47.636Z,7.00
2019-03-27T16:44:29.544Z,6.90
2019-03-27T16:47:11.248Z,6.90
2019-03-27T16:49:53.451Z,7.00
2019-03-27T16:52:35.395Z,7.00
2019-03-27T16:55:17.439Z,7.10
2019-03-27T16:57:59.532Z,7.10
2019-03-27T17:00:41.349Z,6.90
2019-03-27T17:03:23.427Z,7.00
2019-03-27T17:06:05.620Z,6.90
2019-03-27T17:08:47.281Z,7.10
2019-03-27T17:11:29.169Z,7.00
2019-03-27T17:13:57.264Z,7.00
2019-03-27T17:16:39.104Z,6.90
2019-03-27T17:19:20.947Z,6.90
2019-03-27T17:22:03.013Z,6.80
2019-03-27T17:24:44.817Z,7.00
2019-03-27T17:27:26.679Z,6.80
2019-03-27T17:30:08.467Z,6.90
2019-03-27T17:32:50.349Z,6.90
2019-03-27T17:35:32.144Z,6.90
2019-03-27T17:38:14.060Z,6.90
2019-03-27T17:40:55.080Z,6.70
2019-03-27T17:44:06.253Z,6.90
2019-03-27T17:46:51.257Z,6.90
2019-03-27T17:49:33.132Z,6.90
2019-03-27T17:52:15.172Z,6.80
2019-03-27T17:54:57.056Z,6.70
2019-03-27T18:00:22.012Z,6.70
2019-03-27T18:03:04.329Z,6.80
2019-03-27T18:05:46.018Z,6.70
2019-03-27T18:08:28.107Z,6.60
2019-03-27T18:11:12.047Z,6.60
2019-03-27T18:13:54.080Z,6.70
2019-03-27T18:16:35.904Z,6.60
2019-03-27T18:19:17.768Z,6.60
2019-03-27T18:22:07.678Z,6.60
2019-03-27T18:24:43.584Z,6.70
2019-03-27T18:27:25.468Z,6.60
2019-03-27T18:30:07.408Z,6.50
2019-03-27T18:32:49.233Z,6.40
2019-03-27T18:35:31.032Z,6.50
2019-03-27T18:38:13.007Z,6.50
2019-03-27T18:40:54.803Z,6.30
2019-03-27T18:43:37.743Z,6.40
2019-03-27T18:46:19.540Z,6.40
2019-03-27T18:49:02.678Z,6.30
2019-03-27T18:51:44.500Z,6.20
2019-03-27T18:54:26.399Z,6.30
2019-03-27T18:57:07.671Z,6.30
2019-03-27T18:59:49.652Z,6.30
2019-03-27T19:02:31.757Z,6.30
2019-03-27T19:05:13.925Z,6.30
2019-03-27T19:07:55.903Z,6.30
2019-03-27T19:10:37.877Z,6.20
2019-03-27T19:13:05.978Z,6.30
2019-03-27T19:15:48.001Z,6.30
2019-03-27T19:18:29.866Z,6.40
2019-03-27T19:21:11.977Z,6.30
2019-03-27T19:23:53.986Z,6.30
2019-03-27T19:26:36.009Z,6.40
2019-03-27T19:29:17.974Z,6.40
2019-03-27T19:31:59.967Z,6.30
2019-03-27T19:34:41.798Z,6.10
2019-03-27T19:37:23.639Z,6.20
2019-03-27T19:40:05.569Z,6.20
2019-03-27T19:42:47.408Z,6.30
2019-03-27T19:45:29.499Z,6.30
2019-03-27T19:48:11.384Z,6.30
2019-03-27T19:50:53.200Z,6.10
2019-03-27T19:56:16.880Z,6.10
2019-03-27T19:58:58.858Z,6.00
2019-03-27T20:01:40.682Z,6.20
2019-03-27T20:04:22.510Z,6.20
2019-03-27T20:07:04.304Z,6.00
2019-03-27T20:09:46.358Z,6.10
2019-03-27T20:12:28.437Z,6.20
2019-03-27T20:15:12.781Z,6.10
2019-03-27T20:17:56.052Z,6.20
2019-03-27T20:20:38.107Z,6.20
2019-03-27T20:23:20.217Z,6.10
2019-03-27T20:26:01.461Z,6.00
2019-03-27T20:28:45.378Z,5.90
2019-03-27T20:31:27.636Z,6.00
2019-03-27T20:34:09.240Z,5.90
2019-03-27T20:36:51.222Z,5.90
2019-03-27T20:39:32.320Z,5.90
2019-03-27T20:42:14.332Z,5.90
2019-03-27T20:44:56.072Z,5.90
2019-03-27T20:47:38.099Z,5.90
2019-03-27T20:50:19.963Z,5.90
2019-03-27T20:53:01.380Z,5.90
2019-03-27T20:55:43.051Z,5.90
2019-03-27T21:01:05.931Z,5.90
2019-03-27T21:03:47.947Z,5.80
2019-03-27T21:06:29.983Z,5.90
2019-03-27T21:09:11.904Z,5.90
2019-03-27T21:11:56.134Z,5.80
2019-03-27T21:14:37.684Z,5.90
2019-03-27T21:17:19.756Z,5.90
2019-03-27T21:20:01.831Z,5.90
2019-03-27T21:22:43.904Z,5.80
2019-03-27T21:25:25.679Z,5.80
2019-03-27T21:28:07.843Z,5.80
2019-03-27T21:30:49.705Z,5.80
2019-03-27T21:36:13.315Z,5.80
2019-03-27T21:38:55.352Z,5.70
2019-03-27T21:41:37.226Z,5.70
2019-03-27T21:44:19.297Z,5.70
2019-03-27T21:47:01.100Z,5.70
2019-03-27T21:49:43.172Z,5.70
2019-03-27T21:52:25.287Z,5.60
2019-03-27T21:55:07.283Z,5.70
2019-03-27T21:57:50.891Z,5.70
2019-03-27T22:00:33.431Z,5.70
2019-03-27T22:03:15.770Z,5.70
2019-03-27T22:05:57.280Z,5.70
2019-03-27T22:08:39.185Z,5.60
2019-03-27T22:11:21.749Z,5.70
2019-03-27T22:14:04.765Z,5.80
2019-03-27T22:16:46.776Z,5.70
2019-03-27T22:19:28.746Z,5.70
2019-03-27T22:22:11.135Z,5.80
2019-03-27T22:24:53.688Z,5.70
2019-03-27T22:27:35.447Z,5.60
2019-03-27T22:30:17.408Z,5.60
2019-03-27T22:32:59.763Z,5.70
2019-03-27T22:35:41.439Z,5.50
2019-03-27T22:38:22.527Z,5.50
2019-03-27T22:41:04.779Z,5.60
2019-03-27T22:43:46.641Z,5.60
2019-03-27T22:46:28.324Z,5.60
2019-03-27T22:49:10.164Z,5.60
2019-03-27T22:51:52.228Z,5.60
2019-03-27T22:54:34.261Z,5.50
2019-03-27T22:57:16.267Z,5.70
2019-03-27T22:59:58.003Z,5.70
2019-03-27T23:02:40.951Z,5.70
2019-03-27T23:05:21.893Z,5.70
2019-03-27T23:08:03.917Z,5.80
2019-03-27T23:10:45.659Z,5.90
2019-03-27T23:13:29.509Z,5.80
2019-03-27T23:16:11.518Z,5.80
2019-03-27T23:18:53.422Z,5.80
2019-03-27T23:21:35.549Z,5.80
2019-03-27T23:24:17.627Z,5.90
2019-03-27T23:26:59.256Z,5.80
2019-03-27T23:29:41.480Z,5.80
2019-03-27T23:32:23.401Z,5.80
2019-03-27T23:35:05.197Z,5.80
2019-03-27T23:37:47.368Z,5.70
2019-03-27T23:40:29.228Z,5.70
2019-03-27T23:43:11.107Z,5.70
2019-03-27T23:45:53.132Z,5.80
2019-03-27T23:48:35.188Z,5.70
2019-03-27T23:51:19.205Z,5.70
2019-03-27T23:54:00.980Z,5.70
2019-03-27T23:56:43.020Z,5.60
2019-03-27T23:59:25.067Z,5.60
